Time;durP1;ratioP1;P1;durP2;ratioP2;P2;SDS_P1;SDS_P2;PMS_P1;PMS_P2;Temp;Humidity;BMP_temperature;BMP_pressure;BME280_temperature;BME280_humidity;BME280_pressure;Samples;Min_cycle;Max_cycle;Signal;HPM_P1;HPM_P2
2022/03/22 00:01:29;;;;;;;28.58;12.50;;;;;;;0.50;62.37;96014.19;4947986;28;20185;-85
2022/03/22 00:03:54;;;;;;;26.88;12.45;;;;;;;0.53;63.33;96022.41;4981486;28;20030;-85
2022/03/22 00:06:20;;;;;;;22.83;11.35;;;;;;;0.56;63.31;96027.25;4964160;28;20027;-85
2022/03/22 00:08:46;;;;;;;25.50;12.02;;;;;;;0.27;64.81;96017.41;4964347;28;20038;-85
2022/03/22 00:11:12;;;;;;;25.63;11.35;;;;;;;-0.13;67.64;96016.44;4963914;28;20491;-85
2022/03/22 00:13:38;;;;;;;23.02;12.07;;;;;;;0.04;65.99;96022.41;4981263;28;20050;-85
2022/03/22 00:16:05;;;;;;;30.92;12.27;;;;;;;-0.17;67.91;96019.31;4963886;28;20035;-85
2022/03/22 00:18:31;;;;;;;29.48;12.20;;;;;;;-0.37;71.05;96010.25;4964455;28;20030;-85
2022/03/22 00:20:57;;;;;;;32.28;13.05;;;;;;;-0.48;73.41;96019.88;4963788;28;20035;-85
2022/03/22 00:23:24;;;;;;;29.13;12.82;;;;;;;-0.42;71.11;96023.59;4963803;28;20030;-85
2022/03/22 00:25:49;;;;;;;30.05;11.95;;;;;;;-0.38;72.09;96017.16;4963960;28;20117;-85
2022/03/22 00:28:15;;;;;;;28.30;12.15;;;;;;;-0.46;72.28;96014.59;4963631;28;20066;-85
2022/03/22 00:30:41;;;;;;;23.30;11.65;;;;;;;-0.22;69.88;96015.59;4963679;28;20412;-85
2022/03/22 00:33:08;;;;;;;26.67;12.77;;;;;;;-0.16;68.41;96018.34;4947920;28;20082;-85
2022/03/22 00:35:38;;;;;;;26.60;12.43;;;;;;;-0.23;68.10;96021.72;4963849;28;20046;-85
2022/03/22 00:38:20;;;;;;;30.65;13.13;;;;;;;-0.35;70.98;96016.88;4963646;28;20035;-85
2022/03/22 00:40:46;;;;;;;26.60;11.93;;;;;;;-0.31;68.56;96017.34;4980654;28;20105;-85
2022/03/22 00:43:11;;;;;;;27.73;11.80;;;;;;;-0.50;74.60;96026.97;4947635;28;20093;-85
2022/03/22 00:45:37;;;;;;;34.38;12.85;;;;;;;-0.39;69.73;96025.06;4947556;28;20141;-85
2022/03/22 00:48:05;;;;;;;27.67;12.30;;;;;;;-0.27;68.46;96018.66;4947409;28;20042;-85
2022/03/22 00:50:34;;;;;;;25.65;12.63;;;;;;;-0.40;72.00;96015.75;4963227;28;20031;-85
2022/03/22 00:53:01;;;;;;;33.10;13.18;;;;;;;-0.37;69.03;96018.00;4947177;28;20038;-85
2022/03/22 00:55:27;;;;;;;26.30;12.93;;;;;;;-0.45;71.43;96022.13;4947435;28;20129;-85
2022/03/22 00:57:54;;;;;;;26.70;11.43;;;;;;;-0.50;70.53;96019.25;4947480;28;20329;-85
2022/03/22 01:00:20;;;;;;;24.80;11.43;;;;;;;-0.53;71.03;96016.16;4963145;28;20030;-85
2022/03/22 01:02:50;;;;;;;25.45;12.05;;;;;;;-0.54;72.39;96017.13;4946884;28;20471;-85
2022/03/22 01:05:20;;;;;;;25.75;12.30;;;;;;;-0.52;71.38;96012.63;4963536;28;20037;-85
2022/03/22 01:07:47;;;;;;;34.90;13.70;;;;;;;-0.50;72.97;96010.69;4963107;28;20035;-85
2022/03/22 01:10:14;;;;;;;23.83;12.00;;;;;;;-0.47;70.39;96018.13;4962979;28;20041;-85
2022/03/22 01:12:41;;;;;;;26.48;13.15;;;;;;;-0.28;70.43;96009.31;4962992;28;20041;-85
2022/03/22 01:15:15;;;;;;;26.15;12.38;;;;;;;-0.35;70.99;96009.16;4947122;28;20043;-85
2022/03/22 01:17:42;;;;;;;24.85;11.88;;;;;;;-0.48;73.47;96003.66;4963221;28;20026;-85
2022/03/22 01:20:11;;;;;;;23.40;12.15;;;;;;;-0.40;73.35;96006.22;4963002;28;20030;-85
2022/03/22 01:22:43;;;;;;;40.42;13.18;;;;;;;-0.32;73.28;96006.25;4947363;28;20030;-85
2022/03/22 01:25:10;;;;;;;27.00;11.68;;;;;;;-0.38;71.73;96006.88;4947004;28;20042;-85
2022/03/22 01:27:36;;;;;;;25.70;12.57;;;;;;;-0.52;72.17;96004.91;4946797;28;20042;-85
2022/03/22 01:30:07;;;;;;;24.48;12.40;;;;;;;-0.61;71.63;96004.06;4962590;28;20090;-85
2022/03/22 01:32:34;;;;;;;24.40;11.60;;;;;;;-0.60;71.64;96008.25;4946610;28;20459;-84
2022/03/22 01:35:01;;;;;;;28.63;12.45;;;;;;;-0.60;70.56;95997.97;4946818;28;20031;-84
2022/03/22 01:37:26;;;;;;;27.02;12.02;;;;;;;-0.47;68.89;96005.25;4962579;28;20114;-84
2022/03/22 01:39:52;;;;;;;30.42;12.38;;;;;;;-0.32;67.63;96000.28;4979569;28;20109;-85
2022/03/22 01:42:17;;;;;;;30.13;12.60;;;;;;;-0.33;66.30;96002.06;4979680;28;20089;-85
2022/03/22 01:44:43;;;;;;;28.33;12.13;;;;;;;-0.19;66.45;96005.00;4962410;28;20038;-85
2022/03/22 01:47:10;;;;;;;25.92;11.70;;;;;;;-0.01;65.39;96000.50;4962340;28;20035;-85
2022/03/22 01:49:35;;;;;;;26.60;12.82;;;;;;;0.19;63.74;95989.88;4946519;28;20121;-85
2022/03/22 01:52:03;;;;;;;28.38;12.85;;;;;;;0.22;63.47;95991.31;4962195;28;20427;-85
2022/03/22 01:54:29;;;;;;;35.58;12.88;;;;;;;0.29;62.69;95992.31;4946232;28;20034;-85
2022/03/22 01:56:54;;;;;;;25.02;11.15;;;;;;;0.15;63.93;95980.84;4945975;28;20078;-85
2022/03/22 01:59:20;;;;;;;25.48;12.02;;;;;;;0.12;63.63;95981.97;4979407;28;20031;-85
2022/03/22 02:07:28;;;;;;;32.35;12.07;;;;;;;0.11;63.75;95979.56;4964608;28;20130;-85
2022/03/22 02:09:54;;;;;;;31.90;12.10;;;;;;;0.35;62.20;95973.59;4945983;28;20027;-85
2022/03/22 02:12:19;;;;;;;26.92;12.35;;;;;;;0.37;61.54;95976.03;4961844;28;20077;-85
2022/03/22 02:14:45;;;;;;;25.48;12.95;;;;;;;0.12;62.74;95976.81;4961292;28;20117;-85
2022/03/22 02:17:11;;;;;;;31.80;12.82;;;;;;;0.21;62.78;95981.97;4961786;28;20034;-85
2022/03/22 02:19:38;;;;;;;29.40;12.40;;;;;;;0.05;63.31;95975.84;4961763;28;20033;-85
2022/03/22 02:22:11;;;;;;;25.20;11.60;;;;;;;0.13;62.14;95975.06;4961677;28;20161;-85
2022/03/22 02:24:37;;;;;;;26.97;11.77;;;;;;;0.24;61.55;95968.75;4946184;28;20038;-85
2022/03/22 02:27:03;;;;;;;25.45;11.13;;;;;;;0.43;60.34;95970.19;4945800;28;20031;-85
2022/03/22 02:29:28;;;;;;;28.40;11.57;;;;;;;0.67;59.09;95966.75;4961480;28;20031;-85
2022/03/22 02:31:54;;;;;;;25.48;11.75;;;;;;;0.82;57.71;95964.31;4961567;28;20037;-85
2022/03/22 02:34:20;;;;;;;21.92;10.88;;;;;;;0.88;57.70;95962.03;4978717;28;20034;-85
2022/03/22 02:36:45;;;;;;;22.42;10.57;;;;;;;0.84;57.33;95962.38;4961393;28;20042;-85
2022/03/22 02:39:12;;;;;;;25.85;11.23;;;;;;;0.93;57.12;95959.75;4961459;28;20035;-84
2022/03/22 02:41:38;;;;;;;27.85;11.32;;;;;;;0.80;57.61;95966.25;4945409;28;20125;-85
2022/03/22 02:44:04;;;;;;;19.75;10.63;;;;;;;0.82;57.73;95968.66;4978500;28;20129;-85
2022/03/22 02:46:29;;;;;;;23.40;11.68;;;;;;;0.74;57.89;95961.75;4961218;28;20030;-85
2022/03/22 02:48:54;;;;;;;25.08;11.65;;;;;;;0.81;57.41;95961.88;4961468;28;20030;-85
2022/03/22 02:51:20;;;;;;;24.70;10.85;;;;;;;0.92;57.95;95966.69;4961155;28;20031;-85
2022/03/22 02:53:46;;;;;;;28.38;11.57;;;;;;;0.94;57.26;95961.38;4945414;28;20355;-85
2022/03/22 02:56:12;;;;;;;23.33;11.35;;;;;;;1.03;56.64;95967.31;4961053;28;20443;-85
2022/03/22 02:58:38;;;;;;;23.15;11.88;;;;;;;0.95;57.07;95960.41;4945327;28;20039;-85
2022/03/22 03:01:04;;;;;;;24.38;10.88;;;;;;;1.09;56.80;95962.28;4961002;28;20077;-85
2022/03/22 03:03:29;;;;;;;25.80;12.10;;;;;;;1.05;56.59;95955.03;4944980;28;20039;-85
2022/03/22 03:05:55;;;;;;;25.52;10.50;;;;;;;1.06;56.26;95951.47;4960910;28;20077;-84
2022/03/22 03:08:21;;;;;;;27.48;11.70;;;;;;;1.04;56.52;95956.00;4960990;28;20511;-85
2022/03/22 03:10:47;;;;;;;30.48;12.85;;;;;;;1.00;56.58;95963.28;4978075;28;20491;-85
2022/03/22 03:13:13;;;;;;;26.45;13.07;;;;;;;0.96;56.97;95956.84;4945394;28;20035;-84
2022/03/22 03:15:38;;;;;;;27.77;12.85;;;;;;;0.98;56.77;95960.06;4960935;28;20399;-84
2022/03/22 03:18:04;;;;;;;29.85;13.15;;;;;;;0.76;57.57;95959.00;4960800;28;20030;-85
2022/03/22 03:20:30;;;;;;;27.35;13.15;;;;;;;0.82;57.56;95966.06;4960683;28;20030;-85
2022/03/22 03:22:56;;;;;;;26.40;12.68;;;;;;;0.89;57.21;95963.63;4960839;28;20081;-84
2022/03/22 03:25:21;;;;;;;25.90;12.75;;;;;;;1.02;57.16;95968.28;4959842;28;20069;-85
2022/03/22 03:27:47;;;;;;;23.83;11.63;;;;;;;0.91;57.17;95966.84;4944831;28;20034;-85
2022/03/22 03:30:13;;;;;;;25.85;11.50;;;;;;;0.68;57.89;95968.38;4960558;28;20026;-85
2022/03/22 03:32:39;;;;;;;23.27;11.23;;;;;;;0.45;59.80;95967.47;4960588;28;20066;-85
2022/03/22 03:35:05;;;;;;;26.38;12.93;;;;;;;0.38;59.41;95967.31;4960586;28;20077;-85
2022/03/22 03:37:34;;;;;;;30.52;12.40;;;;;;;0.17;61.39;95965.22;4960583;28;20034;-84
2022/03/22 03:40:00;;;;;;;30.85;12.45;;;;;;;0.26;60.48;95970.22;4960958;28;20035;-85
2022/03/22 03:42:25;;;;;;;25.83;11.30;;;;;;;0.40;59.48;95976.47;4977803;28;20111;-85
2022/03/22 03:47:52;;;;;;;26.25;12.20;;;;;;;0.79;58.00;95971.56;4907033;29;20032;-85
2022/03/22 03:50:17;;;;;;;28.38;11.93;;;;;;;0.73;58.18;95967.09;4936655;28;20047;-85
2022/03/22 03:52:43;;;;;;;27.05;12.32;;;;;;;0.82;58.02;95966.06;4977660;28;20031;-85
2022/03/22 03:55:10;;;;;;;23.85;12.13;;;;;;;0.83;57.85;95965.91;4944415;28;20203;-85
2022/03/22 03:57:36;;;;;;;32.65;14.13;;;;;;;0.64;58.72;95979.16;4945193;28;20034;-85
2022/03/22 04:00:03;;;;;;;28.42;13.30;;;;;;;0.81;58.44;95970.44;4960360;28;20026;-84
2022/03/22 04:02:29;;;;;;;26.08;12.45;;;;;;;0.88;57.90;95967.19;4960459;28;20347;-85
2022/03/22 04:04:55;;;;;;;26.90;12.30;;;;;;;1.03;57.11;95968.09;4960325;28;20031;-84
2022/03/22 04:07:22;;;;;;;24.77;12.57;;;;;;;0.97;56.78;95968.78;4944709;28;20105;-85
2022/03/22 04:09:48;;;;;;;29.33;12.70;;;;;;;0.89;56.97;95976.53;4944357;28;20045;-85
2022/03/22 04:12:14;;;;;;;29.80;13.75;;;;;;;0.79;57.20;95972.38;4960345;28;20026;-84
2022/03/22 04:14:40;;;;;;;27.52;12.93;;;;;;;0.73;57.62;95975.63;4944503;28;20031;-85
2022/03/22 04:17:08;;;;;;;36.92;13.50;;;;;;;0.75;57.58;95978.03;4960246;28;20085;-84
2022/03/22 04:19:35;;;;;;;24.70;11.60;;;;;;;0.65;57.23;95983.38;4960519;28;20026;-84
2022/03/22 04:22:02;;;;;;;24.85;11.85;;;;;;;0.74;56.95;95969.47;4960246;28;20034;-85
2022/03/22 04:24:28;;;;;;;21.45;10.98;;;;;;;0.93;56.74;95970.88;4977444;28;20037;-85
2022/03/22 04:26:55;;;;;;;27.67;11.95;;;;;;;0.82;56.29;95971.22;4960079;28;20459;-85
2022/03/22 04:34:49;;;;;;;27.42;12.25;;;;;;;0.64;56.98;95971.44;4988340;28;20095;-85
2022/03/22 04:37:16;;;;;;;30.23;12.88;;;;;;;0.66;56.44;95978.03;4965838;28;20038;-85
2022/03/22 04:39:43;;;;;;;26.15;12.98;;;;;;;0.71;56.46;95972.41;4966906;28;20030;-85
2022/03/22 04:42:10;;;;;;;24.77;12.52;;;;;;;0.75;56.18;95975.47;4966996;28;20435;-84
2022/03/22 04:44:35;;;;;;;31.98;14.35;;;;;;;0.74;56.36;95979.00;4982838;28;20030;-84
2022/03/22 04:47:01;;;;;;;28.52;12.50;;;;;;;0.73;56.47;95973.03;4967148;28;20030;-85
2022/03/22 04:49:27;;;;;;;27.38;12.23;;;;;;;0.70;56.23;95984.47;4982820;28;20037;-85
2022/03/22 04:57:23;;;;;;;26.77;11.68;;;;;;;0.39;57.38;95968.91;4985314;28;20088;-85
2022/03/22 04:59:49;;;;;;;22.65;11.60;;;;;;;0.45;57.53;95972.63;4982449;28;20034;-85
2022/03/22 05:02:15;;;;;;;27.60;12.93;;;;;;;0.40;58.30;95973.91;4966641;28;20026;-84
2022/03/22 05:04:41;;;;;;;33.60;11.95;;;;;;;0.24;58.73;95979.88;4962321;28;20038;-84
2022/03/22 05:07:06;;;;;;;26.20;12.32;;;;;;;0.19;58.92;95978.75;4963063;28;20026;-84
2022/03/22 05:09:32;;;;;;;27.95;12.52;;;;;;;0.23;59.67;95980.03;4962993;28;20030;-84
2022/03/22 05:11:58;;;;;;;31.80;13.63;;;;;;;0.24;59.76;95984.22;4963082;28;20116;-84
2022/03/22 05:14:24;;;;;;;27.42;12.50;;;;;;;0.14;61.40;95992.13;4963290;28;20058;-84
2022/03/22 05:16:50;;;;;;;25.15;11.75;;;;;;;0.12;60.52;95991.50;4962815;28;20120;-84
2022/03/22 05:19:16;;;;;;;25.45;11.98;;;;;;;-0.41;62.57;95999.47;4962777;28;20356;-84
2022/03/22 05:21:41;;;;;;;30.17;12.73;;;;;;;-0.26;62.68;95996.28;4981909;28;20030;-84
2022/03/22 05:24:08;;;;;;;21.75;11.30;;;;;;;-0.49;63.19;95996.88;4953278;28;20375;-84
2022/03/22 05:26:34;;;;;;;28.00;12.90;;;;;;;-0.45;63.91;95998.19;4962930;28;20033;-85
2022/03/22 05:29:04;;;;;;;34.55;13.27;;;;;;;-0.32;64.17;95997.72;4962725;28;20122;-84
2022/03/22 05:31:31;;;;;;;26.00;12.55;;;;;;;-0.26;63.81;96004.81;4962818;28;20117;-85
2022/03/22 05:33:56;;;;;;;28.17;13.80;;;;;;;-0.35;65.96;96004.00;4962727;28;20487;-84
2022/03/22 05:36:22;;;;;;;28.50;13.93;;;;;;;-0.29;64.83;96008.50;4962734;28;20034;-84
2022/03/22 05:38:47;;;;;;;31.48;13.50;;;;;;;-0.20;63.79;96004.19;4962604;28;20046;-84
2022/03/22 05:41:13;;;;;;;25.10;11.95;;;;;;;-0.06;63.31;96014.81;4962416;28;20057;-84
2022/03/22 05:43:39;;;;;;;27.90;13.10;;;;;;;0.04;64.66;96010.34;4962514;28;20042;-84
2022/03/22 05:46:04;;;;;;;28.90;13.50;;;;;;;-0.02;64.22;96009.19;4962317;28;20034;-84
2022/03/22 05:48:30;;;;;;;25.23;13.15;;;;;;;0.12;63.52;96010.31;4945529;28;20046;-84
2022/03/22 05:50:56;;;;;;;31.25;13.48;;;;;;;0.06;63.68;96010.97;4962423;28;20035;-84
2022/03/22 05:53:22;;;;;;;27.70;12.70;;;;;;;0.09;63.84;96015.81;4946437;28;20137;-84
2022/03/22 05:55:48;;;;;;;28.25;11.70;;;;;;;0.18;63.97;96015.81;4946345;28;20075;-84
2022/03/22 05:58:13;;;;;;;29.70;11.82;;;;;;;0.27;63.43;96014.84;4974194;28;20113;-84
2022/03/22 06:00:39;;;;;;;28.58;12.93;;;;;;;0.56;62.18;96016.09;4985229;28;20045;-84
2022/03/22 06:03:04;;;;;;;27.52;12.98;;;;;;;0.76;61.31;96018.34;4981415;28;20039;-85
2022/03/22 06:05:30;;;;;;;23.15;11.82;;;;;;;0.80;61.40;96019.63;4965378;28;20034;-84
2022/03/22 06:07:57;;;;;;;27.30;12.77;;;;;;;0.91;60.79;96024.44;4963957;28;20132;-84
2022/03/22 06:10:22;;;;;;;24.50;12.88;;;;;;;1.05;60.30;96024.72;4962681;28;20030;-84
2022/03/22 06:12:59;;;;;;;25.27;12.55;;;;;;;1.23;59.96;96020.16;4981012;28;20112;-84
2022/03/22 06:15:29;;;;;;;23.65;13.15;;;;;;;1.39;59.51;96021.06;4989108;28;20039;-84
2022/03/22 06:17:58;;;;;;;27.42;13.25;;;;;;;1.51;59.45;96021.50;4962421;28;20026;-84
2022/03/22 06:20:28;;;;;;;26.67;13.05;;;;;;;1.77;57.50;96016.03;4961207;28;20468;-84
2022/03/22 06:22:55;;;;;;;28.08;13.07;;;;;;;1.94;56.72;96023.69;4961461;28;20113;-84
2022/03/22 06:25:21;;;;;;;25.00;11.65;;;;;;;2.03;56.99;96021.84;4961513;28;20351;-85
2022/03/22 06:27:49;;;;;;;28.10;13.90;;;;;;;2.04;56.81;96019.09;4945568;28;20105;-84
2022/03/22 06:30:15;;;;;;;27.00;13.02;;;;;;;2.05;57.02;96022.47;4962991;28;20061;-84
2022/03/22 06:32:58;;;;;;;24.23;13.23;;;;;;;2.06;57.44;96018.91;4980827;28;20034;-84
2022/03/22 06:35:26;;;;;;;27.60;12.68;;;;;;;2.24;55.64;96021.22;4997953;28;20031;-84
2022/03/22 06:37:52;;;;;;;29.42;13.18;;;;;;;2.31;55.98;96023.91;4980662;28;20419;-84
2022/03/22 06:40:19;;;;;;;23.17;12.30;;;;;;;2.36;55.90;96021.59;4964467;28;20034;-84
2022/03/22 06:42:45;;;;;;;24.90;13.20;;;;;;;2.45;56.77;96027.53;4964410;28;20041;-84
2022/03/22 06:45:11;;;;;;;28.65;13.27;;;;;;;2.60;56.31;96027.53;4964284;28;20030;-84
2022/03/22 06:47:39;;;;;;;25.35;11.95;;;;;;;2.72;57.91;96025.31;4980546;28;20122;-84
2022/03/22 06:50:15;;;;;;;24.83;12.00;;;;;;;2.85;55.81;96022.94;4980226;28;20444;-84
2022/03/22 06:52:41;;;;;;;26.23;10.90;;;;;;;3.02;57.47;96023.56;4964225;28;20026;-84
2022/03/22 06:55:08;;;;;;;25.45;11.98;;;;;;;2.97;55.10;96029.28;4964084;28;20037;-84
2022/03/22 06:57:34;;;;;;;24.08;12.27;;;;;;;3.21;55.14;96031.78;4980159;28;20030;-84
2022/03/22 07:00:04;;;;;;;26.33;12.05;;;;;;;3.27;55.93;96040.63;4979937;28;20038;-84
2022/03/22 07:02:31;;;;;;;24.48;11.52;;;;;;;3.30;55.83;96035.91;4962229;28;20128;-84
2022/03/22 07:04:56;;;;;;;25.02;11.32;;;;;;;3.22;57.21;96036.81;4961162;28;20033;-84
2022/03/22 07:07:22;;;;;;;21.13;11.65;;;;;;;2.94;57.62;96029.66;4960988;28;20125;-84
2022/03/22 07:09:48;;;;;;;27.58;12.32;;;;;;;2.71;57.44;96040.06;4945034;28;20126;-84
2022/03/22 07:12:13;;;;;;;25.63;11.07;;;;;;;2.93;56.23;96038.41;4960855;28;20126;-84
2022/03/22 07:14:40;;;;;;;24.70;12.15;;;;;;;3.10;57.09;96043.41;4997541;28;20427;-84
2022/03/22 07:17:10;;;;;;;29.05;11.60;;;;;;;3.04;59.16;96049.31;4966483;28;20031;-84
2022/03/22 07:19:36;;;;;;;27.25;11.55;;;;;;;2.92;58.73;96049.75;4980232;28;20084;-84
2022/03/22 07:22:02;;;;;;;22.20;11.77;;;;;;;3.16;57.62;96052.25;4979999;28;20030;-84
2022/03/22 07:24:28;;;;;;;23.55;10.52;;;;;;;3.24;56.34;96050.38;4967483;28;20057;-84
2022/03/22 07:26:54;;;;;;;23.40;11.93;;;;;;;3.53;60.09;96038.38;4970829;28;20026;-84
2022/03/22 07:29:20;;;;;;;25.42;11.70;;;;;;;3.72;57.67;96049.16;4972400;28;20082;-84
2022/03/22 07:31:46;;;;;;;21.60;11.68;;;;;;;3.82;56.96;96039.31;4960385;28;20034;-84
2022/03/22 07:34:15;;;;;;;23.58;12.07;;;;;;;3.86;55.85;96050.13;4960604;28;20066;-84
2022/03/22 07:36:41;;;;;;;21.63;11.63;;;;;;;3.91;57.06;96040.00;4960643;28;20118;-84
2022/03/22 07:39:08;;;;;;;22.15;11.10;;;;;;;3.89;58.29;96046.38;4960551;28;20030;-84
2022/03/22 07:41:34;;;;;;;24.55;12.05;;;;;;;3.95;56.47;96053.41;4960575;28;20034;-84
2022/03/22 07:44:01;;;;;;;26.48;12.60;;;;;;;3.77;55.77;96059.81;4960393;28;20031;-84
2022/03/22 07:46:27;;;;;;;33.92;13.48;;;;;;;3.92;56.39;96056.38;4960428;28;20034;-83
2022/03/22 07:48:53;;;;;;;25.83;12.80;;;;;;;4.16;56.69;96046.63;4944426;28;20041;-83
2022/03/22 07:54:03;;;;;;;24.67;12.38;;;;;;;4.36;54.24;96055.41;4963045;28;20033;-83
2022/03/22 07:56:30;;;;;;;22.55;12.13;;;;;;;4.54;54.28;96059.34;4944459;28;20031;-84
2022/03/22 07:58:56;;;;;;;21.20;11.70;;;;;;;4.57;53.78;96061.56;4977543;28;20077;-83
2022/03/22 08:01:22;;;;;;;24.15;12.07;;;;;;;4.72;53.57;96058.09;4961668;28;20034;-83
2022/03/22 08:03:47;;;;;;;22.95;11.95;;;;;;;4.82;55.00;96061.16;4979563;28;20034;-83
2022/03/22 08:06:13;;;;;;;22.23;10.98;;;;;;;5.01;54.29;96064.91;4979703;28;20424;-83
2022/03/22 08:08:43;;;;;;;27.08;12.93;;;;;;;5.31;54.80;96054.28;4979749;28;20034;-83
2022/03/22 08:11:09;;;;;;;28.05;12.98;;;;;;;5.41;54.30;96063.53;4997173;28;20351;-83
2022/03/22 08:13:36;;;;;;;26.00;12.82;;;;;;;5.21;54.58;96059.84;4983814;28;20026;-83
2022/03/22 08:16:01;;;;;;;28.58;13.63;;;;;;;5.31;54.00;96058.69;5000729;28;20035;-83
2022/03/22 08:18:27;;;;;;;24.10;12.50;;;;;;;5.30;53.54;96063.06;4983338;28;20041;-83
2022/03/22 08:20:53;;;;;;;28.10;12.70;;;;;;;5.29;54.21;96058.06;4983181;28;20026;-83
2022/03/22 08:23:18;;;;;;;26.00;12.38;;;;;;;5.41;55.54;96063.53;4983371;28;20097;-83
2022/03/22 08:25:43;;;;;;;23.90;12.75;;;;;;;5.45;52.21;96064.75;4983273;28;20069;-83
2022/03/22 08:28:10;;;;;;;30.13;12.68;;;;;;;5.38;54.83;96067.31;4967298;28;20331;-83
2022/03/22 08:30:38;;;;;;;21.13;11.82;;;;;;;5.41;52.89;96069.53;4966995;28;20026;-83
2022/03/22 08:33:08;;;;;;;25.67;12.68;;;;;;;5.26;53.62;96066.25;4967533;28;20033;-83
2022/03/22 08:35:36;;;;;;;32.67;13.20;;;;;;;5.61;51.67;96056.63;4967599;28;20347;-83
2022/03/22 08:38:02;;;;;;;29.35;11.98;;;;;;;5.55;50.58;96065.22;4983004;28;20073;-83
2022/03/22 08:40:27;;;;;;;22.02;11.05;;;;;;;5.49;49.67;96071.16;4966941;28;20359;-83
2022/03/22 08:42:53;;;;;;;23.13;12.07;;;;;;;5.47;52.69;96071.38;4967299;28;20023;-83
2022/03/22 08:45:23;;;;;;;22.08;11.55;;;;;;;5.69;51.12;96063.47;4982757;28;20379;-83
2022/03/22 08:47:50;;;;;;;20.42;10.85;;;;;;;5.50;50.02;96068.38;4982822;28;20026;-83
2022/03/22 08:50:18;;;;;;;27.17;12.30;;;;;;;5.27;50.17;96070.44;4966496;28;20045;-83
2022/03/22 08:52:44;;;;;;;28.23;11.52;;;;;;;5.29;51.39;96063.25;4982710;28;20026;-83
2022/03/22 08:55:18;;;;;;;22.23;10.35;;;;;;;5.69;48.23;96060.84;4982656;28;20037;-83
2022/03/22 08:57:46;;;;;;;20.65;10.15;;;;;;;5.96;50.38;96070.56;4983682;28;20022;-83
2022/03/22 09:00:13;;;;;;;19.00;9.52;;;;;;;6.32;47.52;96059.88;4982614;28;20531;-83
2022/03/22 09:02:40;;;;;;;16.60;8.73;;;;;;;6.27;44.95;96062.25;4982541;28;20112;-83
2022/03/22 09:07:52;;;;;;;24.38;9.25;;;;;;;6.59;40.63;96064.31;4985064;28;20085;-83
2022/03/22 09:10:20;;;;;;;18.33;9.18;;;;;;;6.47;38.35;96066.69;4982262;28;20451;-83
2022/03/22 09:12:46;;;;;;;18.95;8.15;;;;;;;6.66;38.34;96065.09;4982859;28;20113;-83
2022/03/22 09:15:11;;;;;;;18.02;9.93;;;;;;;6.76;36.33;96072.53;4982222;28;20046;-83
2022/03/22 09:17:39;;;;;;;23.48;9.68;;;;;;;6.57;36.33;96067.09;4982238;28;20152;-83
2022/03/22 09:20:06;;;;;;;23.50;9.10;;;;;;;6.44;36.51;96073.09;4966208;28;20031;-83
2022/03/22 09:22:31;;;;;;;19.88;9.80;;;;;;;6.34;37.31;96076.09;4982062;28;20057;-83
2022/03/22 09:24:57;;;;;;;19.92;10.40;;;;;;;6.42;38.19;96069.09;4982208;28;20117;-83
2022/03/22 09:27:23;;;;;;;25.15;10.40;;;;;;;6.61;38.42;96076.13;4982102;28;20027;-83
2022/03/22 09:29:49;;;;;;;21.50;10.13;;;;;;;6.82;38.17;96076.94;4999177;28;20354;-83
2022/03/22 09:32:14;;;;;;;19.13;9.10;;;;;;;6.91;40.44;96072.31;4981923;28;20033;-83
2022/03/22 09:34:40;;;;;;;19.33;9.77;;;;;;;6.70;37.37;96079.34;4981950;28;20030;-83
2022/03/22 09:37:07;;;;;;;19.75;10.35;;;;;;;6.97;37.93;96073.31;4965882;28;20034;-82
2022/03/22 09:39:33;;;;;;;23.35;10.48;;;;;;;6.91;38.08;96074.91;4982342;28;20030;-83
2022/03/22 09:42:01;;;;;;;20.00;10.40;;;;;;;6.69;38.34;96075.13;4981737;28;20030;-83
2022/03/22 09:44:28;;;;;;;18.98;9.55;;;;;;;6.40;39.33;96074.50;4981778;28;20109;-83
2022/03/22 09:46:55;;;;;;;21.35;10.55;;;;;;;6.30;41.20;96066.28;4981722;28;20102;-83
2022/03/22 09:49:20;;;;;;;25.60;10.50;;;;;;;6.31;39.49;96070.47;4981784;28;20422;-83
2022/03/22 09:51:46;;;;;;;21.25;9.80;;;;;;;6.57;39.47;96074.91;4998899;28;20101;-83
2022/03/22 09:54:17;;;;;;;17.58;9.50;;;;;;;6.67;38.99;96071.13;4965530;28;20069;-83
2022/03/22 09:56:43;;;;;;;22.88;10.23;;;;;;;6.97;41.27;96068.09;4998893;28;20022;-83
2022/03/22 09:59:09;;;;;;;24.52;10.80;;;;;;;7.29;39.40;96066.44;4981354;28;20038;-83
2022/03/22 10:01:36;;;;;;;18.40;10.02;;;;;;;7.30;38.86;96064.63;4981349;28;20022;-83
2022/03/22 10:04:04;;;;;;;20.63;10.98;;;;;;;7.54;38.49;96071.00;4965435;28;20076;-83
2022/03/22 10:06:30;;;;;;;22.77;11.32;;;;;;;7.49;38.99;96070.81;4965409;28;20424;-83
2022/03/22 10:08:56;;;;;;;24.92;11.10;;;;;;;6.90;39.63;96061.09;4965465;28;20427;-83
2022/03/22 10:11:22;;;;;;;25.35;11.50;;;;;;;6.68;40.14;96057.91;4981070;28;20112;-83
2022/03/22 10:13:53;;;;;;;22.55;11.88;;;;;;;7.20;42.58;96063.25;4981143;28;20423;-82
2022/03/22 10:16:18;;;;;;;24.08;10.98;;;;;;;7.35;42.48;96062.22;4981190;28;20435;-83
2022/03/22 10:18:44;;;;;;;21.90;10.52;;;;;;;7.49;41.71;96063.81;4981329;28;20035;-83
2022/03/22 10:21:09;;;;;;;20.63;11.88;;;;;;;7.36;40.88;96061.22;4965088;28;20033;-82
2022/03/22 10:23:51;;;;;;;20.65;11.48;;;;;;;7.54;41.89;96054.53;4981072;28;20076;-83
2022/03/22 10:26:17;;;;;;;22.23;11.43;;;;;;;7.83;39.75;96060.25;4965081;28;20428;-83
2022/03/22 10:28:54;;;;;;;26.30;10.88;;;;;;;8.04;42.45;96051.31;4981772;28;20030;-83
2022/03/22 10:31:21;;;;;;;28.10;12.50;;;;;;;7.78;40.78;96061.69;4964906;28;20034;-83
2022/03/22 10:33:52;;;;;;;24.55;12.18;;;;;;;7.90;41.14;96055.81;4964619;28;20038;-83
2022/03/22 10:36:21;;;;;;;24.42;11.07;;;;;;;8.20;42.69;96042.22;4980370;28;20154;-83
2022/03/22 10:38:55;;;;;;;24.17;11.65;;;;;;;8.65;39.78;96037.91;4980929;28;20539;-83
2022/03/22 10:41:27;;;;;;;22.20;11.82;;;;;;;8.33;38.89;96036.91;4980623;28;20458;-83
2022/03/22 10:44:06;;;;;;;21.37;11.57;;;;;;;8.37;38.80;96039.88;4980678;28;20033;-83
2022/03/22 10:46:32;;;;;;;40.70;12.07;;;;;;;8.66;38.22;96039.50;4997890;28;20027;-83
2022/03/22 10:49:18;;;;;;;27.60;11.68;;;;;;;8.18;40.93;96033.78;4997907;28;20347;-83
2022/03/22 10:51:44;;;;;;;24.40;11.95;;;;;;;8.46;38.33;96036.00;4997766;28;20030;-83
2022/03/22 10:54:19;;;;;;;21.55;11.05;;;;;;;8.36;37.84;96033.06;4997899;28;20026;-83
2022/03/22 10:56:48;;;;;;;24.60;11.38;;;;;;;8.40;41.17;96031.63;4964529;28;20435;-83
2022/03/22 10:59:18;;;;;;;22.02;10.93;;;;;;;8.59;38.38;96027.28;4980347;28;20028;-83
2022/03/22 11:01:46;;;;;;;23.30;11.38;;;;;;;8.69;38.44;96032.06;4980342;28;20030;-83
2022/03/22 11:04:16;;;;;;;21.13;11.32;;;;;;;8.42;36.98;96036.63;4980384;28;20416;-83
2022/03/22 11:06:43;;;;;;;21.95;12.23;;;;;;;8.18;37.67;96036.41;4964743;28;20450;-83
2022/03/22 11:09:09;;;;;;;25.95;11.88;;;;;;;8.03;38.60;96037.50;4980293;28;20513;-83
2022/03/22 11:11:36;;;;;;;27.55;12.40;;;;;;;8.28;41.86;96028.88;4963878;28;20065;-83
2022/03/22 11:14:02;;;;;;;25.38;12.02;;;;;;;8.65;37.70;96035.28;4980207;28;20045;-83
2022/03/22 11:16:30;;;;;;;19.80;10.73;;;;;;;8.58;38.95;96022.28;4964201;28;20027;-83
2022/03/22 11:18:59;;;;;;;23.20;12.70;;;;;;;8.38;37.80;96023.19;4980193;28;20023;-83
2022/03/22 11:21:26;;;;;;;21.30;11.32;;;;;;;8.58;38.46;96030.91;4964037;28;20030;-83
2022/03/22 11:23:52;;;;;;;30.48;12.35;;;;;;;8.55;38.19;96031.34;4964100;28;20454;-83
2022/03/22 11:26:22;;;;;;;23.40;11.88;;;;;;;8.48;39.42;96035.81;4980094;28;20400;-83
2022/03/22 11:28:51;;;;;;;22.40;11.20;;;;;;;8.57;37.89;96034.53;4980067;28;20129;-83
2022/03/22 11:31:19;;;;;;;30.65;13.50;;;;;;;8.42;38.37;96024.38;4980205;28;20030;-83
2022/03/22 11:36:44;;;;;;;23.17;12.57;;;;;;;8.42;39.78;96018.34;4990090;28;20029;-82
2022/03/22 11:42:23;;;;;;;26.13;12.10;;;;;;;8.70;39.81;96023.19;4985672;28;20037;-83
2022/03/22 11:44:59;;;;;;;21.92;11.60;;;;;;;8.78;41.67;96011.66;4986322;28;20026;-83
2022/03/22 11:47:27;;;;;;;20.80;10.98;;;;;;;9.21;39.42;96004.81;5018664;28;20099;-83
2022/03/22 11:49:52;;;;;;;23.63;12.43;;;;;;;9.47;38.26;96013.38;5003554;28;20211;-83
2022/03/22 11:52:26;;;;;;;21.30;12.00;;;;;;;8.80;38.59;96001.78;5020801;28;20109;-83
2022/03/22 11:55:00;;;;;;;30.17;13.35;;;;;;;8.99;44.55;96001.81;5003384;28;20029;-83